Home PIREPS Pireps

Flight SAB2651

  • Submitted By: Frank Bogaerts
  • Departure Airport: Bruxelles National (EBBR)
  • Arrival Airport: Stuttgart (EDDS)
  • Aircraft: B737-500 (OO-SAB)
  • Flight Time: 01.24
  • Date Submitted: 12/02/2018
  • Status: Accepted
Flight Details
Gross Revenue:
(120 load / € 0.00 per unit
€ 0.00
Fuel Cost:
(3083 fuel used @ 5.1 / unit)
€ 15,723.30

Additional Log Information:

View Log

Aircraft Used in flight is PMDG 737-800NGX Brussels Airlines Winglets
16:37 Brakes are On
16:51 Brakes are Released
16:55 Brakes are On
17:01 Brakes are Released
17:03 You Took off @ 169 Knots and Flaps at Position 3
Departure Weather
EBBR 121550Z 25011KT 9999 FEW035 05/M03 Q1016 NOSIGrn
17:03 Landing Gear Up @ 175 Knots and 780 Feet
17:06 Above FL100 you need to switch of the landing lights
17:07 You are Airborne and your Navigation Lights are off
17:07 You are Airborne and your Beacons are off
17:36 Above FL100 you need to switch of the landing lights
17:37 Below 10000 feet you are not allowed to go over 250 knots
17:55 Landing Gear Down @ 141 Knots and 4300 Feet
18:02 You Landed @ 131 Knots and with -150 Vertical Speed
Arrival Weather
EDDS 121650Z 28008KT 9999 VCSH FEW021 SCT032TCU BKN052 01/M04 Q1016 NOSIGrn
18:02 Paused
18:09 Unpaused
18:09 Paused
18:09 Brakes are On
18:09 Unpaused
18:10 Brussels Bel-Track1.0.1.2

Route Map

Corporate About Us Our Team Vacancies Information Fleet Route Network Rules and Regulations Operations Flight Schedules Event Center Tours Partners IVAO Vatsim Acars dev FSCB

fb Users Online No pilots online!
0 Pilot(s) and 192 Guest(s) Online
CMS by phpVMS - Design by Crazycreatives.com - Copyright © 2018 - Brussels Airlines Virtual